Terminal Aerodrome Forecast
Issued by NWS

Home | Current Version | Previous Version | Text Only | Print | Product List | Glossary On
Versions: 1 2 3 4 5 6 7 8 9 10 11 12 13 14 15 16 17 18 19 20 21 22 23 24 25
000
FTUS46 KSEW 200300 AAB
TAFHQM
TAF AMD
KHQM 200346Z 2004/2024 00000KT 6SM BR BKN005 BKN015
      TEMPO 2004/2008 SCT005 SCT015
     FM201100 04005KT 2SM BR BKN004
     FM201900 07010KT P6SM SKC=

USA.gov is the U.S. government's official web portal to all federal, state and local government web resources and services.